Time;durP1;ratioP1;P1;durP2;ratioP2;P2;SDS_P1;SDS_P2;PMS_P1;PMS_P2;Temp;Humidity;BMP_temperature;BMP_pressure;BME280_temperature;BME280_humidity;BME280_pressure;Samples;Min_cycle;Max_cycle;Signal;HPM_P1;HPM_P2
2021/08/30 00:00:55;;;;;;;12.07;10.77;;;435.90;2355.20;;;;;;5033757;28;20033;-79
2021/08/30 00:03:20;;;;;;;13.20;11.18;;;435.90;2355.20;;;;;;5032195;28;20026;-82
2021/08/30 00:05:46;;;;;;;12.85;10.52;;;435.90;2355.20;;;;;;5032740;28;20053;-83
2021/08/30 00:08:12;;;;;;;11.98;10.70;;;435.90;2355.20;;;;;;5032582;28;20030;-84
2021/08/30 00:10:38;;;;;;;14.40;11.07;;;435.90;2355.20;;;;;;5032606;28;20025;-82
2021/08/30 00:13:04;;;;;;;15.68;12.23;;;435.80;2355.20;;;;;;5032699;28;20030;-84
2021/08/30 00:15:30;;;;;;;12.15;10.55;;;435.90;2355.20;;;;;;5032578;28;20082;-83
2021/08/30 00:17:57;;;;;;;13.80;11.73;;;435.80;2355.20;;;;;;5032297;28;20030;-81
2021/08/30 00:20:23;;;;;;;15.63;12.02;;;435.90;2355.20;;;;;;5032650;28;20029;-82
2021/08/30 00:22:49;;;;;;;12.23;10.93;;;435.80;2355.20;;;;;;5032512;28;20037;-81
2021/08/30 00:25:15;;;;;;;13.88;12.15;;;435.80;2355.20;;;;;;5033471;28;20135;-84
2021/08/30 00:27:41;;;;;;;14.20;11.55;;;435.80;2355.20;;;;;;5032532;28;20458;-82
2021/08/30 00:30:09;;;;;;;12.70;11.40;;;435.90;2355.20;;;;;;5032130;28;20041;-84
2021/08/30 00:32:35;;;;;;;15.13;11.10;;;435.90;2355.20;;;;;;5033158;28;20041;-82
2021/08/30 00:35:01;;;;;;;14.13;11.73;;;435.90;2355.20;;;;;;5033648;28;20030;-82
2021/08/30 00:37:26;;;;;;;15.45;11.25;;;435.90;2355.20;;;;;;5032488;28;20473;-82
2021/08/30 00:39:52;;;;;;;14.27;11.70;;;435.90;2355.20;;;;;;5032351;28;20140;-83
2021/08/30 00:42:21;;;;;;;14.55;11.38;;;435.90;2355.20;;;;;;5032256;28;20075;-83
2021/08/30 00:44:47;;;;;;;13.38;11.30;;;435.90;2355.20;;;;;;5032000;28;20030;-83
2021/08/30 00:47:14;;;;;;;16.58;11.93;;;435.90;2355.20;;;;;;5032280;28;20071;-82
2021/08/30 00:49:40;;;;;;;13.93;12.10;;;435.80;2355.20;;;;;;5032323;28;20449;-81
2021/08/30 00:52:06;;;;;;;14.60;12.27;;;435.80;2355.20;;;;;;5031992;28;20025;-83
2021/08/30 00:54:32;;;;;;;14.65;11.93;;;435.90;2355.20;;;;;;5032291;28;20069;-83
2021/08/30 00:57:02;;;;;;;12.98;11.57;;;435.90;2355.20;;;;;;5033506;28;20568;-82
2021/08/30 00:59:27;;;;;;;16.77;12.23;;;436.00;2355.20;;;;;;5031867;28;20033;-82
2021/08/30 01:01:53;;;;;;;16.55;13.13;;;436.00;2355.20;;;;;;5032205;28;20029;-82
2021/08/30 01:04:19;;;;;;;16.27;12.63;;;435.80;2355.20;;;;;;5032096;28;20080;-82
2021/08/30 01:06:53;;;;;;;13.15;11.48;;;435.70;2355.20;;;;;;5032835;28;20021;-81
2021/08/30 01:09:25;;;;;;;15.18;12.05;;;435.50;2355.20;;;;;;5034240;28;20401;-82
2021/08/30 01:11:55;;;;;;;15.57;12.57;;;;;;;;;;5035425;28;20029;-85
2021/08/30 01:14:21;;;;;;;13.68;11.55;;;;;;;;;;5035767;28;20259;-83
2021/08/30 01:16:49;;;;;;;14.07;11.90;;;435.90;2355.20;;;;;;5036873;28;20079;-84
2021/08/30 01:19:22;;;;;;;14.00;12.30;;;435.80;2355.20;;;;;;5035436;28;20036;-82
2021/08/30 01:21:48;;;;;;;13.90;12.00;;;435.80;2355.20;;;;;;5035625;28;20033;-82
2021/08/30 01:24:17;;;;;;;13.48;11.10;;;435.90;2355.20;;;;;;5035491;28;20397;-83
2021/08/30 01:26:54;;;;;;;13.50;10.60;;;436.00;2355.20;;;;;;5036438;28;20028;-81
2021/08/30 01:29:28;;;;;;;17.65;12.23;;;436.00;2355.20;;;;;;5034963;28;20061;-82
2021/08/30 01:32:14;;;;;;;14.63;11.40;;;436.10;2355.20;;;;;;5035400;28;20476;-81
2021/08/30 01:34:41;;;;;;;14.50;11.98;;;436.00;2355.20;;;;;;5034994;28;20027;-82
2021/08/30 01:37:07;;;;;;;14.90;12.45;;;435.90;2355.20;;;;;;5036583;28;20017;-82
2021/08/30 01:39:33;;;;;;;16.38;13.02;;;435.80;2355.20;;;;;;5035250;28;20087;-83
2021/08/30 01:42:00;;;;;;;17.08;13.45;;;435.60;2355.20;;;;;;5034813;28;20469;-82
2021/08/30 01:44:27;;;;;;;19.95;13.77;;;435.80;2355.20;;;;;;5036312;28;20036;-84
2021/08/30 01:46:55;;;;;;;14.70;12.40;;;435.50;2355.20;;;;;;5034977;28;20088;-83
2021/08/30 01:49:24;;;;;;;14.18;12.43;;;435.50;2355.20;;;;;;5034969;28;20083;-84
2021/08/30 01:51:51;;;;;;;14.00;12.13;;;435.50;2355.20;;;;;;5034958;28;20083;-84
2021/08/30 01:54:18;;;;;;;16.55;13.40;;;435.50;2355.20;;;;;;5035722;28;20385;-83
2021/08/30 01:56:50;;;;;;;20.65;13.13;;;435.50;2355.20;;;;;;5035067;28;20105;-83
2021/08/30 02:02:06;;;;;;;17.02;14.40;;;435.30;2355.20;;;;;;5035923;28;20036;-85
2021/08/30 02:04:32;;;;;;;15.65;13.00;;;435.30;2355.20;;;;;;5034924;28;20025;-82
2021/08/30 02:06:58;;;;;;;14.68;12.95;;;435.40;2355.20;;;;;;5034869;28;20028;-82
2021/08/30 02:09:24;;;;;;;16.20;12.23;;;435.60;2355.20;;;;;;5034296;28;20041;-86
2021/08/30 02:11:49;;;;;;;14.77;12.60;;;435.80;2355.20;;;;;;5036009;28;20079;-85
2021/08/30 02:14:15;;;;;;;15.75;12.20;;;435.90;2355.20;;;;;;5034796;28;20029;-84
2021/08/30 02:16:41;;;;;;;18.02;12.32;;;436.00;2355.20;;;;;;5034535;28;20025;-83
2021/08/30 02:19:19;;;;;;;13.88;11.98;;;436.10;2355.20;;;;;;5034100;28;20025;-83
2021/08/30 02:21:50;;;;;;;18.38;14.00;;;436.00;2355.20;;;;;;5033572;28;20021;-84
2021/08/30 02:24:20;;;;;;;17.35;14.63;;;435.80;2355.20;;;;;;5034101;28;20021;-81
2021/08/30 02:26:49;;;;;;;17.92;16.02;;;435.80;2355.20;;;;;;5034407;28;20060;-84
2021/08/30 02:29:20;;;;;;;18.85;16.30;;;435.80;2355.20;;;;;;5033992;28;20405;-82
2021/08/30 02:31:51;;;;;;;17.98;14.55;;;435.60;2355.20;;;;;;5034122;28;20032;-83
2021/08/30 02:34:21;;;;;;;20.13;17.42;;;435.80;2355.20;;;;;;5034765;28;20025;-82
2021/08/30 02:36:48;;;;;;;22.00;16.80;;;435.80;2355.20;;;;;;5033430;28;20130;-84
2021/08/30 02:39:16;;;;;;;21.70;17.65;;;435.70;2355.20;;;;;;5034876;28;20480;-81
2021/08/30 02:41:42;;;;;;;20.23;17.40;;;435.50;2355.20;;;;;;5034138;28;20029;-82
2021/08/30 02:44:08;;;;;;;20.15;16.48;;;435.60;2355.20;;;;;;5033468;28;20079;-83
2021/08/30 02:46:35;;;;;;;18.85;15.77;;;435.70;2355.20;;;;;;5034130;28;20033;-83
2021/08/30 02:49:02;;;;;;;18.30;16.40;;;435.60;2355.20;;;;;;5033923;28;20120;-82
2021/08/30 02:51:29;;;;;;;21.27;18.55;;;435.30;2355.20;;;;;;5033947;28;20425;-85
2021/08/30 02:53:55;;;;;;;19.13;16.80;;;435.20;2355.20;;;;;;5033832;28;20029;-85
2021/08/30 02:56:21;;;;;;;19.10;16.73;;;410.50;2355.20;;;;;;5033748;28;20029;-85
2021/08/30 02:58:48;;;;;;;20.70;17.77;;;410.50;2355.20;;;;;;5033502;28;20036;-85
2021/08/30 03:01:16;;;;;;;20.13;17.10;;;410.40;2355.20;;;;;;5033650;28;20080;-84
2021/08/30 03:03:43;;;;;;;20.45;15.93;;;410.40;2355.20;;;;;;5033776;28;20049;-86
2021/08/30 03:06:09;;;;;;;20.58;15.77;;;435.30;2355.20;;;;;;5033351;28;20033;-84
2021/08/30 03:08:35;;;;;;;20.83;15.60;;;435.30;2355.20;;;;;;5033442;28;20030;-84
2021/08/30 03:11:02;;;;;;;17.38;15.45;;;435.40;2355.20;;;;;;5033462;28;20371;-84
2021/08/30 03:13:29;;;;;;;20.83;16.90;;;435.60;2355.20;;;;;;5033539;28;20049;-82
2021/08/30 03:15:56;;;;;;;18.58;16.50;;;435.40;2355.20;;;;;;5033543;28;20022;-83
2021/08/30 03:18:22;;;;;;;20.55;16.40;;;435.30;2355.20;;;;;;5034391;28;20025;-83
2021/08/30 03:20:52;;;;;;;17.55;15.50;;;435.50;2355.20;;;;;;5033426;28;20033;-83
2021/08/30 03:23:18;;;;;;;17.23;15.15;;;435.60;2355.20;;;;;;5033421;28;20048;-82
2021/08/30 03:25:45;;;;;;;17.08;15.27;;;435.60;2355.20;;;;;;5033164;28;20025;-81
2021/08/30 03:28:12;;;;;;;17.05;15.00;;;435.50;2355.20;;;;;;5034335;28;20115;-84
2021/08/30 03:30:39;;;;;;;20.77;15.80;;;435.40;2355.20;;;;;;5033343;28;20483;-81
2021/08/30 03:33:05;;;;;;;17.88;15.70;;;435.40;2355.20;;;;;;5032433;28;20038;-82
2021/08/30 03:35:32;;;;;;;18.10;15.70;;;435.40;2355.20;;;;;;5033297;28;20025;-81
2021/08/30 03:37:59;;;;;;;16.20;13.70;;;435.50;2355.20;;;;;;5034393;28;20036;-82
2021/08/30 03:40:27;;;;;;;16.92;14.88;;;435.70;2355.20;;;;;;5032906;28;20030;-83
2021/08/30 03:42:54;;;;;;;17.77;15.82;;;435.70;2355.20;;;;;;5034197;28;20452;-82
2021/08/30 03:45:20;;;;;;;17.63;15.70;;;435.40;2355.20;;;;;;5032993;28;20061;-83
2021/08/30 03:47:46;;;;;;;20.23;15.65;;;435.30;2355.20;;;;;;5032780;28;20377;-82
2021/08/30 03:50:13;;;;;;;18.13;14.93;;;435.30;2355.20;;;;;;5032758;28;20030;-82
2021/08/30 03:52:41;;;;;;;16.90;14.75;;;410.50;2355.20;;;;;;5032826;28;20037;-82
2021/08/30 03:55:08;;;;;;;18.65;15.10;;;435.30;2355.20;;;;;;5032628;28;20029;-82
2021/08/30 03:57:35;;;;;;;15.73;14.10;;;435.50;2355.20;;;;;;5032956;28;20030;-82
2021/08/30 04:00:03;;;;;;;16.27;14.57;;;435.60;2355.20;;;;;;5032630;28;20430;-81
2021/08/30 04:02:32;;;;;;;16.75;14.25;;;435.40;2355.20;;;;;;5032861;28;20072;-84
2021/08/30 04:04:59;;;;;;;18.35;15.40;;;435.30;2355.20;;;;;;5032721;28;20026;-82
2021/08/30 04:07:26;;;;;;;17.33;15.32;;;410.50;2355.20;;;;;;5033565;28;20025;-83
2021/08/30 04:09:52;;;;;;;21.33;15.45;;;435.30;2355.20;;;;;;5033759;28;20033;-81
2021/08/30 04:12:19;;;;;;;18.65;16.65;;;410.50;2355.20;;;;;;5032338;28;20075;-83
2021/08/30 04:14:47;;;;;;;18.63;15.05;;;410.40;2355.20;;;;;;5032560;28;20462;-82
2021/08/30 04:17:13;;;;;;;17.60;15.52;;;410.50;2355.20;;;;;;5032817;28;20036;-81
2021/08/30 04:19:38;;;;;;;16.80;15.00;;;435.30;2355.20;;;;;;5032661;28;20080;-82
2021/08/30 04:22:04;;;;;;;15.98;14.27;;;435.50;2355.20;;;;;;5032613;28;20420;-81
2021/08/30 04:24:30;;;;;;;20.77;16.42;;;435.60;2355.20;;;;;;5032635;28;20465;-82
2021/08/30 04:26:56;;;;;;;17.40;15.50;;;435.30;2355.20;;;;;;5032673;28;20021;-82
2021/08/30 04:29:22;;;;;;;18.80;16.15;;;410.50;2355.20;;;;;;5033173;28;20053;-84
2021/08/30 04:31:48;;;;;;;18.25;15.55;;;435.30;2355.20;;;;;;5032582;28;20029;-83
2021/08/30 04:34:20;;;;;;;17.58;14.70;;;410.50;2355.20;;;;;;5032486;28;20030;-82
2021/08/30 04:36:46;;;;;;;17.55;15.73;;;435.30;2355.20;;;;;;5031907;28;20041;-83
2021/08/30 04:39:12;;;;;;;17.10;15.30;;;435.40;2355.20;;;;;;5032742;28;20192;-82
2021/08/30 04:41:38;;;;;;;16.80;14.85;;;435.50;2355.20;;;;;;5032406;28;20028;-84
2021/08/30 04:44:04;;;;;;;20.60;17.20;;;435.50;2355.20;;;;;;5033769;28;20025;-84
2021/08/30 04:46:30;;;;;;;18.15;15.45;;;435.50;2355.20;;;;;;5036303;28;20492;-84
2021/08/30 04:48:56;;;;;;;17.98;15.35;;;435.50;2355.20;;;;;;5035997;28;20029;-83
2021/08/30 04:51:22;;;;;;;17.20;15.38;;;435.60;2355.20;;;;;;5036261;28;20432;-83
2021/08/30 04:53:48;;;;;;;17.70;14.77;;;435.50;2355.20;;;;;;5036116;28;20025;-83
2021/08/30 04:56:13;;;;;;;18.30;15.50;;;435.50;2355.20;;;;;;5036106;28;20030;-84
2021/08/30 04:58:39;;;;;;;19.85;16.88;;;435.60;2355.20;;;;;;5036101;28;20040;-83
2021/08/30 05:01:05;;;;;;;17.52;15.43;;;435.60;2355.20;;;;;;5036024;28;20465;-83
2021/08/30 05:03:31;;;;;;;18.83;14.60;;;435.70;2355.20;;;;;;5035757;28;20037;-82
2021/08/30 05:05:57;;;;;;;19.85;15.38;;;435.70;2355.20;;;;;;5037141;28;20034;-82
2021/08/30 05:08:22;;;;;;;20.90;16.75;;;435.70;2355.20;;;;;;5035657;28;20033;-85
2021/08/30 05:10:48;;;;;;;25.02;16.95;;;435.90;2355.20;;;;;;5035648;28;20026;-81
2021/08/30 05:13:14;;;;;;;18.42;16.45;;;435.70;2355.20;;;;;;5036076;28;20107;-85
2021/08/30 05:15:40;;;;;;;22.65;20.25;;;435.60;2355.20;;;;;;5035959;28;20021;-82
2021/08/30 05:18:06;;;;;;;23.73;17.52;;;435.60;2355.20;;;;;;5035773;28;20487;-82
2021/08/30 05:20:31;;;;;;;19.20;15.98;;;435.30;2355.20;;;;;;5035646;28;20025;-85
2021/08/30 05:22:57;;;;;;;22.67;18.92;;;435.30;2355.20;;;;;;5035613;28;20032;-83
2021/08/30 05:25:23;;;;;;;20.33;17.95;;;435.30;2355.20;;;;;;5036641;28;20110;-83
2021/08/30 05:27:51;;;;;;;26.05;17.30;;;435.40;2355.20;;;;;;5035528;28;20076;-82
2021/08/30 05:30:17;;;;;;;20.23;16.00;;;435.60;2355.20;;;;;;5035342;28;20428;-81
2021/08/30 05:32:43;;;;;;;18.85;15.65;;;435.80;2355.20;;;;;;5035297;28;20061;-84
2021/08/30 05:35:09;;;;;;;20.13;18.00;;;435.60;2355.20;;;;;;5035293;28;20064;-82
2021/08/30 05:37:35;;;;;;;19.73;16.58;;;435.60;2355.20;;;;;;5035442;28;20030;-83
2021/08/30 05:40:01;;;;;;;19.92;16.70;;;435.80;2355.20;;;;;;5035162;28;20121;-83
2021/08/30 05:42:27;;;;;;;19.98;16.25;;;435.80;2355.20;;;;;;5035396;28;20381;-83
2021/08/30 05:44:52;;;;;;;20.00;17.60;;;435.80;2355.20;;;;;;5034982;28;20075;-83
2021/08/30 05:47:18;;;;;;;18.13;15.95;;;436.00;2355.20;;;;;;5035170;28;20029;-83
2021/08/30 05:49:44;;;;;;;20.15;16.65;;;436.10;2355.20;;;;;;5035293;28;20033;-82
2021/08/30 05:52:12;;;;;;;23.25;17.00;;;460.80;2380.80;;;;;;5034891;28;20432;-83
2021/08/30 05:54:39;;;;;;;19.52;17.42;;;460.80;2380.80;;;;;;5034677;28;20528;-82
2021/08/30 05:57:05;;;;;;;21.58;18.10;;;460.80;2380.80;;;;;;5034527;28;20063;-84
2021/08/30 05:59:31;;;;;;;19.35;16.55;;;460.80;2380.80;;;;;;5034842;28;20060;-83
2021/08/30 06:01:56;;;;;;;19.55;17.05;;;461.00;2380.80;;;;;;5034858;28;20057;-83
2021/08/30 06:04:22;;;;;;;21.15;17.55;;;461.10;2380.80;;;;;;5036048;28;20112;-84
2021/08/30 06:06:48;;;;;;;20.88;16.80;;;461.10;2380.80;;;;;;5034624;28;20059;-83
2021/08/30 06:09:14;;;;;;;21.20;16.40;;;461.10;2380.80;;;;;;5034703;28;20037;-81
2021/08/30 06:11:41;;;;;;;19.77;17.02;;;461.10;2380.80;;;;;;5034841;28;20030;-83
2021/08/30 06:14:07;;;;;;;30.85;18.95;;;461.10;2380.80;;;;;;5034170;28;20075;-85
2021/08/30 06:16:32;;;;;;;21.63;17.50;;;461.10;2380.80;;;;;;5034608;28;20029;-84
2021/08/30 06:18:58;;;;;;;18.83;15.60;;;461.20;2380.80;;;;;;5034176;28;20029;-82
2021/08/30 06:21:24;;;;;;;21.35;16.85;;;461.20;2380.80;;;;;;5033799;28;20032;-84
2021/08/30 06:23:50;;;;;;;20.98;17.17;;;461.10;2380.80;;;;;;5033982;28;20021;-82
2021/08/30 06:26:16;;;;;;;22.30;16.48;;;461.10;2380.80;;;;;;5034385;28;20036;-84
2021/08/30 06:28:42;;;;;;;18.95;16.92;;;461.00;2380.80;;;;;;5033909;28;20049;-83
2021/08/30 06:31:08;;;;;;;20.67;16.55;;;461.10;2380.80;;;;;;5034077;28;20112;-83
2021/08/30 06:33:34;;;;;;;21.75;16.42;;;461.10;2380.80;;;;;;5035136;28;20033;-86
2021/08/30 06:36:00;;;;;;;18.52;15.63;;;461.10;2380.80;;;;;;5033279;28;20029;-82
2021/08/30 06:38:26;;;;;;;15.55;13.85;;;461.10;2380.80;;;;;;5033645;28;20440;-80
2021/08/30 06:40:51;;;;;;;21.85;15.93;;;461.20;2380.80;;;;;;5033262;28;20117;-84
2021/08/30 06:43:17;;;;;;;17.85;15.15;;;461.40;2380.80;;;;;;5033548;28;20021;-82
2021/08/30 06:45:43;;;;;;;19.20;16.00;;;461.50;2380.80;;;;;;5033824;28;20532;-81
2021/08/30 06:48:09;;;;;;;21.73;14.27;;;461.70;2380.80;;;;;;5034515;28;20030;-80
2021/08/30 06:50:35;;;;;;;29.80;18.52;;;486.40;2380.80;;;;;;5033760;28;20034;-82
2021/08/30 06:53:00;;;;;;;29.08;17.88;;;486.50;2380.80;;;;;;5033803;28;20021;-82
2021/08/30 06:55:27;;;;;;;19.10;14.98;;;486.70;2380.80;;;;;;5032718;28;20492;-80
2021/08/30 06:57:53;;;;;;;18.75;15.60;;;486.70;2380.80;;;;;;5033573;28;20116;-81
2021/08/30 07:00:19;;;;;;;21.83;16.25;;;486.60;2380.80;;;;;;5033623;28;20547;-80
2021/08/30 07:02:45;;;;;;;21.13;15.70;;;486.50;2380.80;;;;;;5033346;28;20056;-80
2021/08/30 07:05:11;;;;;;;16.50;14.38;;;486.40;2380.80;;;;;;5033252;28;20028;-80
2021/08/30 07:07:38;;;;;;;29.67;19.58;;;461.70;2380.80;;;;;;5033464;28;20030;-80
2021/08/30 07:10:05;;;;;;;23.05;18.05;;;486.40;2380.80;;;;;;5032963;28;20092;-81
2021/08/30 07:12:30;;;;;;;13.25;11.85;;;461.70;2380.80;;;;;;5033371;28;20029;-81
2021/08/30 07:14:56;;;;;;;14.90;12.40;;;461.70;2380.80;;;;;;5033286;28;20032;-81
2021/08/30 07:17:22;;;;;;;15.68;12.90;;;486.40;2380.80;;;;;;5033186;28;20029;-80
2021/08/30 07:19:48;;;;;;;15.98;13.20;;;486.40;2380.80;;;;;;5033252;28;20036;-81
2021/08/30 07:22:14;;;;;;;13.02;11.63;;;486.50;2380.80;;;;;;5033211;28;20025;-82
2021/08/30 07:24:40;;;;;;;14.73;12.25;;;486.40;2380.80;;;;;;5033002;28;20029;-81
2021/08/30 07:27:06;;;;;;;13.27;11.88;;;461.70;2380.80;;;;;;5032990;28;20025;-79
2021/08/30 07:29:32;;;;;;;18.58;12.25;;;461.70;2380.80;;;;;;5034213;28;20060;-81
2021/08/30 07:31:59;;;;;;;18.90;15.60;;;461.60;2380.80;;;;;;5032727;28;20025;-81
2021/08/30 07:34:25;;;;;;;16.95;14.70;;;461.70;2380.80;;;;;;5033052;28;20376;-82
2021/08/30 07:36:55;;;;;;;19.70;16.02;;;486.40;2380.80;;;;;;5033892;28;20030;-81
2021/08/30 07:39:21;;;;;;;22.73;20.58;;;486.50;2380.80;;;;;;5032922;28;20029;-81
2021/08/30 07:41:47;;;;;;;16.00;13.07;;;486.70;2380.80;;;;;;5033702;28;20389;-80
2021/08/30 07:44:14;;;;;;;15.90;12.57;;;486.80;2380.80;;;;;;5034034;28;20113;-80
2021/08/30 07:46:40;;;;;;;15.07;11.52;;;487.10;2380.80;;;;;;5032890;28;20021;-80
2021/08/30 07:49:05;;;;;;;13.45;11.45;;;487.30;2380.80;;;;;;5034102;28;20425;-80
2021/08/30 07:51:33;;;;;;;14.40;11.23;;;512.00;2380.80;;;;;;5032482;28;20025;-79
2021/08/30 07:54:00;;;;;;;12.32;10.00;;;512.10;2380.80;;;;;;5032653;28;20576;-81
2021/08/30 07:56:26;;;;;;;15.05;9.95;;;512.00;2380.80;;;;;;5032709;28;20029;-79
2021/08/30 07:58:52;;;;;;;11.75;9.75;;;487.30;2380.80;;;;;;5032511;28;20036;-79
2021/08/30 08:01:17;;;;;;;12.82;10.00;;;487.30;2380.80;;;;;;5032542;28;20029;-81
2021/08/30 08:03:43;;;;;;;14.35;9.40;;;512.20;2380.80;;;;;;5032581;28;20389;-79
2021/08/30 08:06:09;;;;;;;11.13;8.80;;;512.10;2380.80;;;;;;5033117;28;20029;-80
2021/08/30 08:08:35;;;;;;;12.02;9.25;;;512.00;2380.80;;;;;;5032438;28;20040;-80
2021/08/30 08:11:01;;;;;;;9.93;8.70;;;487.30;2380.80;;;;;;5032451;28;20038;-81
2021/08/30 08:13:29;;;;;;;12.07;9.82;;;487.20;2380.80;;;;;;5032209;28;20025;-80
2021/08/30 08:15:55;;;;;;;11.10;8.45;;;487.10;2380.80;;;;;;5033669;28;20024;-81
2021/08/30 08:18:21;;;;;;;10.23;8.07;;;487.10;2380.80;;;;;;5032998;28;20037;-80
2021/08/30 08:20:48;;;;;;;13.63;8.88;;;487.10;2380.80;;;;;;5036290;28;20207;-80
2021/08/30 08:23:14;;;;;;;9.98;8.02;;;487.00;2380.80;;;;;;5037302;28;20452;-80
2021/08/30 08:25:40;;;;;;;10.45;7.22;;;487.00;2380.80;;;;;;5035731;28;20026;-80
2021/08/30 08:28:06;;;;;;;17.08;11.93;;;487.00;2380.80;;;;;;5036450;28;20026;-80
2021/08/30 08:30:33;;;;;;;12.20;8.38;;;512.00;2380.80;;;;;;5036367;28;20026;-79
2021/08/30 08:32:59;;;;;;;10.68;7.70;;;512.20;2380.80;;;;;;5036933;28;20354;-79
2021/08/30 08:35:25;;;;;;;10.25;8.35;;;512.50;2380.80;;;;;;5036333;28;20026;-81
2021/08/30 08:37:51;;;;;;;11.10;8.50;;;512.70;2380.80;;;;;;5036388;28;20463;-81
2021/08/30 08:40:17;;;;;;;10.80;7.43;;;537.60;2406.40;;;;;;5035963;28;20033;-79
2021/08/30 08:42:44;;;;;;;8.15;6.20;;;537.60;2406.40;;;;;;5036080;28;20350;-81
2021/08/30 08:45:14;;;;;;;7.65;6.07;;;512.90;2380.80;;;;;;5036159;28;20481;-82
2021/08/30 08:47:41;;;;;;;8.48;6.05;;;512.80;2380.80;;;;;;5035271;28;20067;-80
2021/08/30 08:50:09;;;;;;;8.77;7.13;;;512.70;2380.80;;;;;;5015808;28;20072;-80
2021/08/30 08:52:36;;;;;;;11.95;8.85;;;512.50;2380.80;;;;;;5033572;28;20409;-81
2021/08/30 08:55:03;;;;;;;8.52;6.50;;;512.60;2380.80;;;;;;5033091;28;20048;-82
2021/08/30 08:57:29;;;;;;;8.55;6.65;;;512.40;2380.80;;;;;;5035454;28;20496;-80
2021/08/30 09:00:05;;;;;;;10.75;6.68;;;512.70;2380.80;;;;;;5036815;28;20034;-84
2021/08/30 09:02:33;;;;;;;11.38;7.72;;;512.70;2380.80;;;;;;5034404;28;20460;-83
2021/08/30 09:05:02;;;;;;;8.32;6.63;;;512.90;2380.80;;;;;;5035465;28;20035;-83
2021/08/30 09:07:42;;;;;;;8.48;7.30;;;512.90;2380.80;;;;;;5035751;28;20029;-85
2021/08/30 09:10:20;;;;;;;9.82;6.18;;;537.80;2406.40;;;;;;5036366;28;20124;-81
2021/08/30 09:12:48;;;;;;;7.40;6.00;;;537.80;2406.40;;;;;;5035917;28;20034;-83
2021/08/30 09:15:20;;;;;;;9.13;5.38;;;537.70;2406.40;;;;;;5036510;28;20156;-86
2021/08/30 09:17:54;;;;;;;8.00;4.53;;;537.90;2406.40;;;;;;5036121;28;20112;-85
2021/08/30 09:20:22;;;;;;;6.63;4.18;;;538.00;2406.40;;;;;;5036136;28;20041;-85
2021/08/30 09:22:49;;;;;;;11.57;6.72;;;538.00;2406.40;;;;;;5036022;28;20110;-83
2021/08/30 09:25:15;;;;;;;5.72;4.85;;;538.10;2406.40;;;;;;5035917;28;20041;-84
2021/08/30 09:27:44;;;;;;;6.55;4.90;;;538.10;2406.40;;;;;;5035484;28;20030;-83
2021/08/30 09:30:12;;;;;;;8.32;5.25;;;538.20;2406.40;;;;;;5033971;28;20382;-82
2021/08/30 09:32:40;;;;;;;8.38;5.75;;;538.20;2406.40;;;;;;5036677;28;20021;-83
2021/08/30 09:35:07;;;;;;;7.35;6.03;;;538.50;2406.40;;;;;;5035379;28;20376;-81
2021/08/30 09:37:39;;;;;;;7.30;5.43;;;563.20;2432.00;;;;;;5035934;28;20033;-83
2021/08/30 09:40:07;;;;;;;7.07;6.03;;;563.30;2432.00;;;;;;5035667;28;20029;-84
2021/08/30 09:42:34;;;;;;;6.53;4.63;;;563.30;2432.00;;;;;;5035453;28;20195;-83
2021/08/30 09:45:14;;;;;;;7.65;5.72;;;563.60;2432.00;;;;;;5036733;28;20022;-83
2021/08/30 09:48:01;;;;;;;8.35;6.75;;;563.60;2432.00;;;;;;5035392;28;20026;-82
2021/08/30 09:50:33;;;;;;;7.75;6.30;;;563.80;2432.00;;;;;;5035137;28;20069;-82
2021/08/30 09:53:01;;;;;;;8.05;6.55;;;564.00;2432.00;;;;;;5035246;28;20025;-81
2021/08/30 09:55:28;;;;;;;10.07;6.80;;;588.80;2432.00;;;;;;5036062;28;20022;-83
2021/08/30 09:57:55;;;;;;;8.88;7.38;;;588.80;2432.00;;;;;;5035079;28;20068;-81
2021/08/30 10:00:21;;;;;;;8.05;6.80;;;588.80;2432.00;;;;;;5034875;28;20084;-78
2021/08/30 10:02:53;;;;;;;11.60;6.63;;;589.10;2432.00;;;;;;5034793;28;20072;-83
2021/08/30 10:05:20;;;;;;;8.45;5.85;;;589.40;2432.00;;;;;;5038714;28;20060;-81
2021/08/30 10:07:47;;;;;;;6.93;5.80;;;589.40;2432.00;;;;;;5034021;28;20099;-79
2021/08/30 10:10:17;;;;;;;7.47;6.13;;;589.50;2406.40;;;;;;5036062;28;20021;-80
2021/08/30 10:12:44;;;;;;;8.05;6.65;;;589.60;2406.40;;;;;;5034569;28;20030;-83
2021/08/30 10:15:12;;;;;;;11.77;6.47;;;589.70;2380.80;;;;;;5033939;28;20449;-80
2021/08/30 10:17:44;;;;;;;7.22;6.38;;;614.50;2380.80;;;;;;5034086;28;20473;-81
2021/08/30 10:20:25;;;;;;;8.25;6.25;;;614.80;2329.60;;;;;;5034479;28;20477;-82
2021/08/30 10:23:06;;;;;;;8.73;5.72;;;615.00;2304.00;;;;;;5034062;28;20517;-79
2021/08/30 10:25:34;;;;;;;7.18;5.72;;;614.90;2304.00;;;;;;5034009;28;20029;-79
2021/08/30 10:28:03;;;;;;;7.10;5.72;;;615.10;2252.80;;;;;;5033697;28;20029;-78
2021/08/30 10:30:32;;;;;;;7.22;6.15;;;615.20;2227.20;;;;;;5033706;28;20040;-78
2021/08/30 10:33:01;;;;;;;6.05;5.15;;;640.10;2278.40;;;;;;5033987;28;20417;-79
2021/08/30 10:35:31;;;;;;;9.25;6.32;;;640.50;2227.20;;;;;;5035331;28;20021;-78
2021/08/30 10:37:59;;;;;;;8.95;6.13;;;640.60;2124.80;;;;;;5035286;28;20045;-77
2021/08/30 10:40:37;;;;;;;8.65;5.00;;;640.80;2124.80;;;;;;5033485;28;20033;-79
2021/08/30 10:43:10;;;;;;;6.38;5.72;;;640.90;2048.00;;;;;;5033155;28;20029;-82
2021/08/30 10:45:38;;;;;;;6.13;5.10;;;640.90;2073.60;;;;;;5033725;28;20025;-80
2021/08/30 10:48:09;;;;;;;6.55;5.22;;;665.60;2048.00;;;;;;5033332;28;20041;-78
2021/08/30 10:50:41;;;;;;;6.63;5.45;;;640.70;2022.40;;;;;;5033310;28;20025;-81
2021/08/30 10:53:15;;;;;;;;;;;640.60;2073.60;;;;;;5033815;28;20143;-81
2021/08/30 10:55:43;;;;;;;9.75;5.75;;;640.80;2022.40;;;;;;5033446;28;19905;-81
2021/08/30 10:58:12;;;;;;;12.15;6.00;;;666.00;2048.00;;;;;;5032924;28;20033;-80
2021/08/30 11:00:38;;;;;;;17.10;7.57;;;666.40;2022.40;;;;;;5031568;28;20044;-80
2021/08/30 11:03:04;;;;;;;9.90;6.15;;;666.50;1996.80;;;;;;5032174;28;20076;-81
2021/08/30 11:05:31;;;;;;;8.07;6.95;;;691.20;1971.20;;;;;;5032614;28;20026;-80
2021/08/30 11:07:57;;;;;;;6.65;5.22;;;691.30;1945.60;;;;;;5033401;28;20051;-81
2021/08/30 11:10:25;;;;;;;9.70;6.63;;;691.20;1894.40;;;;;;5032976;28;20041;-81
2021/08/30 11:12:55;;;;;;;7.90;6.15;;;691.30;1945.60;;;;;;5032780;28;20465;-79
2021/08/30 11:15:21;;;;;;;5.68;4.85;;;691.40;1894.40;;;;;;5031878;28;20534;-80
2021/08/30 11:17:47;;;;;;;7.10;6.03;;;691.20;1843.20;;;;;;5031649;28;20120;-80
2021/08/30 11:20:17;;;;;;;5.72;4.95;;;666.30;1894.40;;;;;;5033742;28;20029;-81
2021/08/30 11:22:53;;;;;;;6.35;5.38;;;691.30;1868.80;;;;;;5032343;28;20021;-80
2021/08/30 11:25:19;;;;;;;6.75;5.25;;;691.70;1894.40;;;;;;5031908;28;20040;-81
2021/08/30 11:27:45;;;;;;;6.68;5.22;;;691.70;1817.60;;;;;;5033149;28;20026;-81
2021/08/30 11:30:13;;;;;;;8.07;6.03;;;691.70;1843.20;;;;;;5033737;28;20053;-83
2021/08/30 11:32:40;;;;;;;7.78;5.72;;;692.10;1817.60;;;;;;5032652;28;20036;-80
2021/08/30 11:35:08;;;;;;;6.15;5.40;;;692.10;1792.00;;;;;;5032527;28;20036;-81
2021/08/30 11:37:35;;;;;;;7.03;6.15;;;716.90;1792.00;;;;;;5032357;28;20407;-80
2021/08/30 11:40:05;;;;;;;7.68;5.60;;;717.10;1817.60;;;;;;5032495;28;20033;-79
2021/08/30 11:42:33;;;;;;;7.38;5.35;;;717.30;1792.00;;;;;;5032584;28;20115;-81
2021/08/30 11:45:03;;;;;;;6.20;4.60;;;717.30;1766.40;;;;;;5032138;28;20100;-80
2021/08/30 11:47:30;;;;;;;5.82;5.00;;;717.30;1715.20;;;;;;5033571;28;20167;-80
2021/08/30 11:49:58;;;;;;;6.63;5.43;;;717.50;1792.00;;;;;;5031992;28;20128;-81
2021/08/30 11:52:30;;;;;;;17.40;15.55;;;717.20;1740.80;;;;;;5031697;28;20036;-80
2021/08/30 11:55:02;;;;;;;8.90;6.90;;;717.50;1740.80;;;;;;5033163;28;20025;-80
2021/08/30 11:57:47;;;;;;;7.97;5.45;;;717.30;1740.80;;;;;;5033595;28;20080;-80
2021/08/30 12:00:23;;;;;;;7.75;5.90;;;717.40;1740.80;;;;;;5033531;28;20033;-79
2021/08/30 12:02:55;;;;;;;8.68;7.03;;;742.50;1792.00;;;;;;5032518;28;20116;-80
2021/08/30 12:05:24;;;;;;;9.35;6.90;;;742.60;1766.40;;;;;;5032346;28;20029;-81
2021/08/30 12:07:52;;;;;;;7.88;5.60;;;742.80;1740.80;;;;;;5031983;28;20031;-81
2021/08/30 12:10:18;;;;;;;8.40;7.13;;;742.60;1715.20;;;;;;5033445;28;20096;-80